createdAt,value
2022-09-15T00:00:00.930Z,12.8
2022-09-15T00:01:01.502Z,12.8
2022-09-15T00:02:01.264Z,12.8
2022-09-15T00:03:00.697Z,12.8
2022-09-15T00:04:01.237Z,12.9
2022-09-15T00:05:00.842Z,12.8
2022-09-15T00:06:01.388Z,12.8
2022-09-15T00:07:00.980Z,12.8
2022-09-15T00:08:01.559Z,12.9
2022-09-15T00:09:01.132Z,12.8
2022-09-15T00:10:00.704Z,12.8
2022-09-15T00:11:01.300Z,12.8
2022-09-15T00:12:00.891Z,12.8
2022-09-15T00:13:01.479Z,12.8
2022-09-15T00:14:01.051Z,12.8
2022-09-15T00:15:01.625Z,12.9
2022-09-15T00:16:01.198Z,12.8
2022-09-15T00:17:00.831Z,12.8
2022-09-15T00:18:01.364Z,12.8
2022-09-15T00:19:00.940Z,12.8
2022-09-15T00:20:01.513Z,12.8
2022-09-15T00:21:01.128Z,12.8
2022-09-15T00:22:00.673Z,12.7
2022-09-15T00:23:01.264Z,12.7
2022-09-15T00:24:00.839Z,12.7
2022-09-15T00:25:01.415Z,12.7
2022-09-15T00:26:00.989Z,12.7
2022-09-15T00:27:01.586Z,12.7
2022-09-15T00:28:01.180Z,12.7
2022-09-15T00:29:00.766Z,12.6
2022-09-15T00:30:01.321Z,12.7
2022-09-15T00:31:00.960Z,12.6
2022-09-15T00:32:01.479Z,12.6
2022-09-15T00:33:01.053Z,12.6
2022-09-15T00:34:01.638Z,12.6
2022-09-15T00:35:01.218Z,12.6
2022-09-15T00:36:00.794Z,12.6
2022-09-15T00:37:01.373Z,12.6
2022-09-15T00:38:00.946Z,12.6
2022-09-15T00:39:01.542Z,12.6
2022-09-15T00:40:01.152Z,12.6
2022-09-15T00:41:00.702Z,12.7
2022-09-15T00:42:01.274Z,12.7
2022-09-15T00:43:00.871Z,12.6
2022-09-15T00:44:01.447Z,12.5
2022-09-15T00:45:01.018Z,12.5
2022-09-15T00:46:01.682Z,12.6
2022-09-15T00:47:18.111Z,12.7
2022-09-15T00:48:00.819Z,12.5
2022-09-15T00:49:01.411Z,12.5
2022-09-15T00:50:00.983Z,12.6
2022-09-15T00:51:01.566Z,12.5
2022-09-15T00:52:01.138Z,12.4
2022-09-15T00:53:00.710Z,12.5
2022-09-15T00:54:01.300Z,12.4
2022-09-15T00:55:00.874Z,12.4
2022-09-15T00:56:01.447Z,12.3
2022-09-15T00:57:01.019Z,12.3
2022-09-15T00:58:01.595Z,12.2
2022-09-15T00:59:01.211Z,12.2
2022-09-15T01:00:00.793Z,12.2
2022-09-15T01:01:01.429Z,12.2
2022-09-15T01:02:01.076Z,12.2
2022-09-15T01:03:01.609Z,12.1
2022-09-15T01:04:01.212Z,12
2022-09-15T01:05:00.785Z,12
2022-09-15T01:06:01.359Z,12
2022-09-15T01:07:00.931Z,11.9
2022-09-15T01:08:01.511Z,11.9
2022-09-15T01:09:01.102Z,11.9
2022-09-15T01:10:00.669Z,11.8
2022-09-15T01:11:01.242Z,11.8
2022-09-15T01:12:00.816Z,11.8
2022-09-15T01:13:01.390Z,11.8
2022-09-15T01:14:00.977Z,11.8
2022-09-15T01:15:01.556Z,11.8
2022-09-15T01:16:01.218Z,11.8
2022-09-15T01:17:00.699Z,11.8
2022-09-15T01:18:01.275Z,11.7
2022-09-15T01:19:00.851Z,11.6
2022-09-15T01:20:01.426Z,11.6
2022-09-15T01:21:01.016Z,11.7
2022-09-15T01:22:01.615Z,11.6
2022-09-15T01:23:01.219Z,11.6
2022-09-15T01:24:00.768Z,11.6
2022-09-15T01:25:01.340Z,11.6
2022-09-15T01:26:00.913Z,11.5
2022-09-15T01:27:09.756Z,11.6
2022-09-15T01:28:01.045Z,11.5
2022-09-15T01:29:01.620Z,11.6
2022-09-15T01:30:01.193Z,11.5
2022-09-15T01:31:00.790Z,11.5
2022-09-15T01:32:01.394Z,11.4
2022-09-15T01:33:01.001Z,11.3
2022-09-15T01:34:01.563Z,11.3
2022-09-15T01:35:01.160Z,11.4
2022-09-15T01:36:00.739Z,11.4
2022-09-15T01:37:01.315Z,11.3
2022-09-15T01:38:00.890Z,11.3
2022-09-15T01:39:01.473Z,11.3
2022-09-15T01:40:01.117Z,11.4
2022-09-15T01:41:01.647Z,11.4
2022-09-15T01:42:01.220Z,11.3
2022-09-15T01:43:00.792Z,11.3
2022-09-15T01:44:01.362Z,11.3
2022-09-15T01:45:00.935Z,11.3
2022-09-15T01:46:01.613Z,11.3
2022-09-15T01:47:01.359Z,11.3
2022-09-15T01:48:00.738Z,11.3
2022-09-15T01:49:01.318Z,11.3
2022-09-15T01:50:00.897Z,11.3
2022-09-15T01:51:01.486Z,11.4
2022-09-15T01:52:01.061Z,11.4
2022-09-15T01:53:01.634Z,11.3
2022-09-15T01:54:01.209Z,11.4
2022-09-15T01:55:00.781Z,11.4
2022-09-15T01:56:01.373Z,11.4
2022-09-15T01:57:00.952Z,11.4
2022-09-15T01:58:01.530Z,11.5
2022-09-15T01:59:01.103Z,11.5
2022-09-15T02:00:00.679Z,11.5
2022-09-15T02:01:01.332Z,11.6
2022-09-15T02:02:00.942Z,11.6
2022-09-15T02:03:01.522Z,11.6
2022-09-15T02:04:01.126Z,11.6
2022-09-15T02:05:00.680Z,11.6
2022-09-15T02:06:01.271Z,11.6
2022-09-15T02:07:00.848Z,11.7
2022-09-15T02:08:01.427Z,11.7
2022-09-15T02:09:01.017Z,11.7
2022-09-15T02:10:01.585Z,11.8
2022-09-15T02:11:01.161Z,11.8
2022-09-15T02:12:00.733Z,11.7
2022-09-15T02:13:01.305Z,11.7
2022-09-15T02:14:00.895Z,11.7
2022-09-15T02:15:01.462Z,11.7
2022-09-15T02:16:01.112Z,11.9
2022-09-15T02:17:01.619Z,12
2022-09-15T02:18:01.190Z,12
2022-09-15T02:19:00.805Z,12.1
2022-09-15T02:20:01.352Z,12.1
2022-09-15T02:21:00.927Z,12.1
2022-09-15T02:22:01.500Z,12.1
2022-09-15T02:23:01.120Z,12.1
2022-09-15T02:24:01.663Z,12.1
2022-09-15T02:25:01.236Z,12.2
2022-09-15T02:26:00.811Z,12.2
2022-09-15T02:27:01.383Z,12.3
2022-09-15T02:28:00.956Z,12.2
2022-09-15T02:29:01.547Z,12.2
2022-09-15T02:30:01.137Z,12.2
2022-09-15T02:31:00.708Z,12.3
2022-09-15T02:32:05.073Z,12.3
2022-09-15T02:33:00.816Z,12.2
2022-09-15T02:34:01.393Z,12.2
2022-09-15T02:35:01.006Z,12.2
2022-09-15T02:36:01.551Z,12.1
2022-09-15T02:37:01.123Z,12.1
2022-09-15T02:38:00.696Z,12.1
2022-09-15T02:39:01.287Z,12.1
2022-09-15T02:40:00.952Z,12.1
2022-09-15T02:41:01.452Z,12
2022-09-15T02:42:01.025Z,12
2022-09-15T02:43:01.602Z,12
2022-09-15T02:44:01.197Z,11.9
2022-09-15T02:45:00.885Z,11.9
2022-09-15T02:46:01.388Z,11.9
2022-09-15T02:47:01.005Z,12
2022-09-15T02:48:01.579Z,12
2022-09-15T02:49:01.169Z,11.9
2022-09-15T02:50:00.727Z,11.9
2022-09-15T02:51:01.324Z,12.1
2022-09-15T02:52:00.897Z,12
2022-09-15T02:53:01.477Z,12.1
2022-09-15T02:54:01.071Z,12.3
2022-09-15T02:55:01.639Z,12.3
2022-09-15T02:56:01.212Z,12.3
2022-09-15T02:57:00.785Z,12.4
2022-09-15T02:58:01.361Z,12.3
2022-09-15T02:59:00.955Z,12.4
2022-09-15T03:00:01.517Z,12.4
2022-09-15T03:01:01.123Z,12.4
2022-09-15T03:02:00.717Z,12.3
2022-09-15T03:03:01.247Z,12.4
2022-09-15T03:04:00.876Z,12.4
2022-09-15T03:05:01.409Z,12.4
2022-09-15T03:06:00.995Z,12.5
2022-09-15T03:07:01.611Z,12.5
2022-09-15T03:08:01.200Z,12.6
2022-09-15T03:09:00.765Z,12.6
2022-09-15T03:10:01.421Z,12.7
2022-09-15T03:11:00.984Z,12.6
2022-09-15T03:12:01.558Z,12.7
2022-09-15T03:13:01.146Z,12.7
2022-09-15T03:14:00.715Z,12.7
2022-09-15T03:15:01.288Z,12.8
2022-09-15T03:16:00.895Z,12.8
2022-09-15T03:17:01.446Z,12.8
2022-09-15T03:18:01.035Z,12.8
2022-09-15T03:19:01.592Z,12.8
2022-09-15T03:20:01.165Z,12.8
2022-09-15T03:21:00.735Z,12.8
2022-09-15T03:22:01.308Z,12.7
2022-09-15T03:23:00.967Z,12.8
2022-09-15T03:24:01.472Z,12.8
2022-09-15T03:25:01.045Z,12.8
2022-09-15T03:26:01.618Z,12.9
2022-09-15T03:27:01.197Z,12.8
2022-09-15T03:28:00.795Z,12.8
2022-09-15T03:29:01.349Z,12.8
2022-09-15T03:30:00.924Z,12.8
2022-09-15T03:31:01.516Z,12.8
2022-09-15T03:32:01.092Z,12.8
2022-09-15T03:33:00.685Z,12.9
2022-09-15T03:34:01.243Z,12.8
2022-09-15T03:35:00.822Z,12.9
2022-09-15T03:36:01.398Z,12.8
2022-09-15T03:37:00.980Z,12.9
2022-09-15T03:38:01.573Z,12.9
2022-09-15T03:39:01.170Z,12.9
2022-09-15T03:40:00.803Z,12.9
2022-09-15T03:41:01.312Z,12.9
2022-09-15T03:42:00.893Z,12.9
2022-09-15T03:43:01.485Z,12.9
2022-09-15T03:44:01.056Z,12.9
2022-09-15T03:45:01.632Z,12.9
2022-09-15T03:46:01.364Z,12.9
2022-09-15T03:47:00.871Z,12.9
2022-09-15T03:48:01.430Z,13
2022-09-15T03:49:01.004Z,13
2022-09-15T03:50:01.578Z,13
2022-09-15T03:51:01.161Z,13
2022-09-15T03:52:00.755Z,13
2022-09-15T03:53:01.324Z,13
2022-09-15T03:54:00.908Z,13
2022-09-15T03:55:01.509Z,13
2022-09-15T03:56:01.087Z,13
2022-09-15T03:57:01.677Z,13
2022-09-15T03:58:01.253Z,13
2022-09-15T03:59:00.827Z,13.1
2022-09-15T04:00:01.418Z,13.1
2022-09-15T04:01:01.068Z,13
2022-09-15T04:02:01.613Z,13.1
2022-09-15T04:03:01.215Z,13.1
2022-09-15T04:04:00.787Z,13.1
2022-09-15T04:05:01.379Z,13
2022-09-15T04:06:00.955Z,13.1
2022-09-15T04:07:01.532Z,13.1
2022-09-15T04:08:01.111Z,13.1
2022-09-15T04:09:00.688Z,13.1
2022-09-15T04:10:01.280Z,13.1
2022-09-15T04:11:00.876Z,13.1
2022-09-15T04:12:01.427Z,13.1
2022-09-15T04:13:00.999Z,13.1
2022-09-15T04:14:01.571Z,13.1
2022-09-15T04:15:01.162Z,13.1
2022-09-15T04:16:00.782Z,13.1
2022-09-15T04:17:01.297Z,13.1
2022-09-15T04:18:00.869Z,13.1
2022-09-15T04:19:01.443Z,13.1
2022-09-15T04:20:01.016Z,13.1
2022-09-15T04:21:01.617Z,13.1
2022-09-15T04:22:01.196Z,13.1
2022-09-15T04:23:00.776Z,13.1
2022-09-15T04:24:01.396Z,13.1
2022-09-15T04:25:00.973Z,13.1
2022-09-15T04:26:01.559Z,13.2
2022-09-15T04:27:01.175Z,13.1
2022-09-15T04:28:00.737Z,13.1
2022-09-15T04:29:04.106Z,13.1
2022-09-15T04:30:00.838Z,13.1
2022-09-15T04:31:01.476Z,13.1
2022-09-15T04:32:01.088Z,13.1
2022-09-15T04:33:01.646Z,13.2
2022-09-15T04:34:01.226Z,13.1
2022-09-15T04:35:00.800Z,13.1
2022-09-15T04:36:01.373Z,13.1
2022-09-15T04:37:00.970Z,13.1
2022-09-15T04:38:01.525Z,13.1
2022-09-15T04:39:01.109Z,13.1
2022-09-15T04:40:00.726Z,13.1
2022-09-15T04:41:01.258Z,13.2
2022-09-15T04:42:00.848Z,13.2
2022-09-15T04:43:01.453Z,13.1
2022-09-15T04:44:01.025Z,13.2
2022-09-15T04:45:01.603Z,13.2
2022-09-15T04:46:01.176Z,13.2
2022-09-15T04:47:00.825Z,13.2
2022-09-15T04:48:01.350Z,13.2
2022-09-15T04:49:00.929Z,13.2
2022-09-15T04:50:01.500Z,13.2
2022-09-15T04:51:01.075Z,13.2
2022-09-15T04:52:01.648Z,13.2
2022-09-15T04:53:01.238Z,13.2
2022-09-15T04:54:00.829Z,13.3
2022-09-15T04:55:01.388Z,13.3
2022-09-15T04:56:00.959Z,13.3
2022-09-15T04:57:01.531Z,13.3
2022-09-15T04:58:01.124Z,13.2
2022-09-15T04:59:03.748Z,13.2
2022-09-15T05:00:01.218Z,13.3
2022-09-15T05:01:00.848Z,13.2
2022-09-15T05:02:01.472Z,13.2
2022-09-15T05:03:01.046Z,13.2
2022-09-15T05:04:01.627Z,13.1
2022-09-15T05:05:01.201Z,13.2
2022-09-15T05:06:00.801Z,13.2
2022-09-15T05:07:01.366Z,13.1
2022-09-15T05:08:00.963Z,13.2
2022-09-15T05:09:02.396Z,13.1
2022-09-15T05:10:01.070Z,13.1
2022-09-15T05:11:01.645Z,13.2
2022-09-15T05:12:01.222Z,13.2
2022-09-15T05:13:00.811Z,13.1
2022-09-15T05:14:01.402Z,13.2
2022-09-15T05:15:01.007Z,13.2
2022-09-15T05:16:01.616Z,13.2
2022-09-15T05:17:01.197Z,13.2
2022-09-15T05:18:00.770Z,13.2
2022-09-15T05:19:01.362Z,13.2
2022-09-15T05:20:00.937Z,13.2
2022-09-15T05:21:01.515Z,13.2
2022-09-15T05:22:01.091Z,13.2
2022-09-15T05:23:01.664Z,13.2
2022-09-15T05:24:01.302Z,13.2
2022-09-15T05:25:00.880Z,13.2
2022-09-15T05:26:01.456Z,13.3
2022-09-15T05:27:01.029Z,13.3
2022-09-15T05:28:01.600Z,13.3
2022-09-15T05:29:01.211Z,13.3
2022-09-15T05:30:23.861Z,13.3
2022-09-15T05:31:01.374Z,13.3
2022-09-15T05:32:00.968Z,13.3
2022-09-15T05:33:01.553Z,13.4
2022-09-15T05:34:01.158Z,13.3
2022-09-15T05:35:00.749Z,13.3
2022-09-15T05:36:01.306Z,13.3
2022-09-15T05:37:00.885Z,13.3
2022-09-15T05:38:01.459Z,13.4
2022-09-15T05:39:01.035Z,13.4
2022-09-15T05:40:04.149Z,13.4
2022-09-15T05:41:01.168Z,13.4
2022-09-15T05:42:00.748Z,13.4
2022-09-15T05:43:02.347Z,13.5
2022-09-15T05:44:00.922Z,13.6
2022-09-15T05:45:01.519Z,13.6
2022-09-15T05:46:01.091Z,13.5
2022-09-15T05:47:01.897Z,13.5
2022-09-15T05:48:01.509Z,13.5
2022-09-15T05:49:00.903Z,13.6
2022-09-15T05:50:01.474Z,13.6
2022-09-15T05:51:01.075Z,13.6
2022-09-15T05:52:01.633Z,13.6
2022-09-15T05:53:01.206Z,13.7
2022-09-15T05:54:00.783Z,13.7
2022-09-15T05:55:01.355Z,13.8
2022-09-15T05:56:00.951Z,13.8
2022-09-15T05:57:01.511Z,13.7
2022-09-15T05:58:01.088Z,13.8
2022-09-15T05:59:01.676Z,13.8
2022-09-15T06:00:01.251Z,13.9
2022-09-15T06:01:00.824Z,13.9
2022-09-15T06:02:01.427Z,13.9
2022-09-15T06:03:01.085Z,13.9
2022-09-15T06:04:01.634Z,14
2022-09-15T06:05:01.207Z,13.9
2022-09-15T06:06:00.780Z,14
2022-09-15T06:07:01.353Z,13.9
2022-09-15T06:08:00.941Z,13.9
2022-09-15T06:09:01.812Z,13.9
2022-09-15T06:10:00.797Z,13.9
2022-09-15T06:11:01.371Z,13.9
2022-09-15T06:12:00.945Z,13.9
2022-09-15T06:13:01.536Z,13.9
2022-09-15T06:14:01.108Z,13.9
2022-09-15T06:15:01.679Z,13.9
2022-09-15T06:16:01.302Z,13.9
2022-09-15T06:17:00.890Z,14
2022-09-15T06:18:01.480Z,14
2022-09-15T06:19:01.097Z,14
2022-09-15T06:20:01.644Z,14
2022-09-15T06:21:01.217Z,13.9
2022-09-15T06:22:00.790Z,13.9
2022-09-15T06:23:01.363Z,13.9
2022-09-15T06:24:00.952Z,14
2022-09-15T06:25:01.567Z,13.9
2022-09-15T06:26:01.143Z,14
2022-09-15T06:27:00.709Z,14
2022-09-15T06:28:01.285Z,14
2022-09-15T06:29:00.875Z,14
2022-09-15T06:30:01.439Z,14
2022-09-15T06:31:01.011Z,14.1
2022-09-15T06:32:01.611Z,13.9
2022-09-15T06:33:01.234Z,13.9
2022-09-15T06:34:00.824Z,13.9
2022-09-15T06:35:01.413Z,14
2022-09-15T06:36:00.986Z,14
2022-09-15T06:37:01.568Z,14
2022-09-15T06:38:01.144Z,14.1
2022-09-15T06:39:00.752Z,14.1
2022-09-15T06:40:01.340Z,14.1
2022-09-15T06:41:00.943Z,14.1
2022-09-15T06:42:03.158Z,14.2
2022-09-15T06:43:00.817Z,14.2
2022-09-15T06:44:01.405Z,14.3
2022-09-15T06:45:00.978Z,14.3
2022-09-15T06:46:01.627Z,14.3
2022-09-15T06:47:01.204Z,14.3
2022-09-15T06:48:20.525Z,14.4
2022-09-15T06:49:01.313Z,14.4
2022-09-15T06:50:00.888Z,14.4
2022-09-15T06:51:01.503Z,14.4
2022-09-15T06:52:01.103Z,14.4
2022-09-15T06:53:01.667Z,14.5
2022-09-15T06:54:01.239Z,14.5
2022-09-15T06:55:00.813Z,14.4
2022-09-15T06:56:01.401Z,14.4
2022-09-15T06:57:00.989Z,14.5
2022-09-15T06:58:01.560Z,14.4
2022-09-15T06:59:01.135Z,14.4
2022-09-15T07:00:00.733Z,14.4
2022-09-15T07:01:01.294Z,14.3
2022-09-15T07:02:04.820Z,14.4
2022-09-15T07:03:01.518Z,14.5
2022-09-15T07:04:01.134Z,14.6
2022-09-15T07:05:01.684Z,14.6
2022-09-15T07:06:01.257Z,14.6
2022-09-15T07:07:00.874Z,14.6
2022-09-15T07:08:01.414Z,14.6
2022-09-15T07:09:01.003Z,14.7
2022-09-15T07:10:01.570Z,14.7
2022-09-15T07:11:01.142Z,14.6
2022-09-15T07:12:00.714Z,14.7
2022-09-15T07:13:01.286Z,14.8
2022-09-15T07:14:00.872Z,14.8
2022-09-15T07:15:01.478Z,14.8
2022-09-15T07:16:01.127Z,14.8
2022-09-15T07:17:01.637Z,14.8
2022-09-15T07:18:01.213Z,14.8
2022-09-15T07:19:00.830Z,14.8
2022-09-15T07:20:01.368Z,14.8
2022-09-15T07:21:00.939Z,14.7
2022-09-15T07:22:01.511Z,14.7
2022-09-15T07:23:01.109Z,14.8
2022-09-15T07:24:06.372Z,14.9
2022-09-15T07:25:01.239Z,14.9
2022-09-15T07:26:00.863Z,14.8
2022-09-15T07:27:01.395Z,14.9
2022-09-15T07:28:00.968Z,14.9
2022-09-15T07:29:01.555Z,14.9
2022-09-15T07:30:01.153Z,15
2022-09-15T07:31:00.715Z,15.1
2022-09-15T07:32:01.334Z,15.1
2022-09-15T07:33:00.933Z,15.1
2022-09-15T07:34:01.512Z,15
2022-09-15T07:35:01.103Z,15
2022-09-15T07:36:01.681Z,15
2022-09-15T07:37:01.258Z,15.1
2022-09-15T07:38:00.830Z,15.2
2022-09-15T07:39:01.428Z,15.2
2022-09-15T07:40:01.029Z,15.1
2022-09-15T07:41:01.608Z,15.2
2022-09-15T07:42:01.186Z,15.1
2022-09-15T07:43:00.760Z,15.2
2022-09-15T07:44:01.348Z,15.3
2022-09-15T07:45:00.926Z,15.4
2022-09-15T07:46:01.641Z,15.4
2022-09-15T07:47:01.162Z,15.5
2022-09-15T07:48:00.736Z,15.6
2022-09-15T07:49:01.311Z,15.6
2022-09-15T07:50:00.886Z,15.5
2022-09-15T07:51:01.480Z,15.6
2022-09-15T07:52:01.055Z,15.7
2022-09-15T07:53:01.628Z,15.7
2022-09-15T07:54:01.201Z,15.9
2022-09-15T07:55:00.857Z,15.9
2022-09-15T07:56:01.377Z,15.9
2022-09-15T07:57:00.948Z,15.9
2022-09-15T07:58:01.520Z,15.9
2022-09-15T07:59:01.101Z,16
2022-09-15T08:00:01.674Z,15.9
2022-09-15T08:01:01.339Z,15.9
2022-09-15T08:02:00.969Z,16
2022-09-15T08:03:01.507Z,16.1
2022-09-15T08:04:01.084Z,16.3
2022-09-15T08:05:01.655Z,16.2
2022-09-15T08:06:01.227Z,16.3
2022-09-15T08:07:00.821Z,16.2
2022-09-15T08:08:01.397Z,16.3
2022-09-15T08:09:01.214Z,16.4
2022-09-15T08:10:01.555Z,16.4
2022-09-15T08:11:01.154Z,16.3
2022-09-15T08:12:00.738Z,16.3
2022-09-15T08:13:01.292Z,16.2
2022-09-15T08:14:00.862Z,16
2022-09-15T08:15:01.434Z,16
2022-09-15T08:16:01.062Z,16.1
2022-09-15T08:17:01.624Z,16.2
2022-09-15T08:18:01.201Z,16.1
2022-09-15T08:19:00.777Z,16
2022-09-15T08:20:01.354Z,16.1
2022-09-15T08:21:00.927Z,16
2022-09-15T08:22:01.525Z,16.1
2022-09-15T08:23:01.099Z,16.3
2022-09-15T08:24:01.676Z,16.3
2022-09-15T08:25:01.250Z,16.5
2022-09-15T08:26:00.871Z,16.6
2022-09-15T08:27:01.450Z,16.7
2022-09-15T08:28:01.020Z,16.8
2022-09-15T08:29:01.606Z,16.8
2022-09-15T08:30:01.180Z,16.8
2022-09-15T08:31:00.781Z,16.8
2022-09-15T08:32:01.329Z,16.8
2022-09-15T08:33:00.902Z,16.8
2022-09-15T08:34:01.492Z,16.7
2022-09-15T08:35:01.063Z,16.7
2022-09-15T08:36:01.631Z,16.7
2022-09-15T08:37:01.201Z,16.6
2022-09-15T08:38:00.775Z,16.5
2022-09-15T08:39:01.358Z,16.5
2022-09-15T08:40:00.965Z,16.7
2022-09-15T08:41:01.522Z,16.8
2022-09-15T08:42:01.096Z,16.8
2022-09-15T08:43:01.689Z,17.1
2022-09-15T08:44:01.303Z,17.2
2022-09-15T08:45:00.887Z,17.3
2022-09-15T08:46:01.549Z,17.5
2022-09-15T08:47:01.127Z,17.3
2022-09-15T08:48:01.699Z,17.3
2022-09-15T08:49:03.030Z,17.3
2022-09-15T08:50:00.800Z,17.2
2022-09-15T08:51:01.372Z,17.3
2022-09-15T08:52:00.943Z,17.3
2022-09-15T08:53:01.516Z,17.3
2022-09-15T08:54:01.111Z,17.4
2022-09-15T08:55:01.679Z,17.4
2022-09-15T08:56:01.253Z,17.4
2022-09-15T08:57:00.839Z,17.3
2022-09-15T08:58:01.410Z,17.3
2022-09-15T08:59:01.025Z,17.3
2022-09-15T09:00:01.567Z,17.3
2022-09-15T09:01:01.143Z,17.1
2022-09-15T09:02:00.797Z,17.1
2022-09-15T09:03:01.372Z,17.2
2022-09-15T09:04:01.002Z,17.3
2022-09-15T09:05:01.555Z,17.2
2022-09-15T09:06:01.127Z,17.3
2022-09-15T09:07:01.697Z,17.4
2022-09-15T09:08:01.272Z,17.5
2022-09-15T09:09:00.859Z,17.6
2022-09-15T09:10:01.429Z,17.6
2022-09-15T09:11:01.002Z,17.7
2022-09-15T09:12:01.574Z,17.6
2022-09-15T09:13:01.162Z,17.7
2022-09-15T09:14:00.719Z,17.7
2022-09-15T09:15:01.314Z,17.6
2022-09-15T09:16:00.891Z,17.7
2022-09-15T09:17:01.471Z,17.6
2022-09-15T09:18:01.060Z,17.7
2022-09-15T09:19:01.629Z,17.6
2022-09-15T09:20:01.200Z,17.6
2022-09-15T09:21:00.775Z,17.6
2022-09-15T09:22:01.351Z,17.7
2022-09-15T09:23:00.940Z,17.8
2022-09-15T09:24:01.509Z,17.8
2022-09-15T09:25:08.511Z,17.7
2022-09-15T09:26:01.619Z,17.8
2022-09-15T09:27:01.219Z,17.7
2022-09-15T09:28:00.810Z,17.7
2022-09-15T09:29:01.374Z,17.6
2022-09-15T09:30:00.943Z,17.5
2022-09-15T09:31:01.596Z,17.7
2022-09-15T09:32:01.176Z,17.7
2022-09-15T09:33:00.769Z,17.8
2022-09-15T09:34:01.341Z,17.8
2022-09-15T09:35:00.929Z,17.9
2022-09-15T09:36:01.502Z,17.8
2022-09-15T09:37:01.074Z,17.8
2022-09-15T09:38:01.645Z,17.9
2022-09-15T09:39:01.218Z,18.2
2022-09-15T09:40:00.849Z,18.1
2022-09-15T09:41:02.441Z,18.2
2022-09-15T09:42:01.272Z,18
2022-09-15T09:43:01.624Z,18.1
2022-09-15T09:44:01.195Z,18
2022-09-15T09:45:00.782Z,18.2
2022-09-15T09:46:01.362Z,18.3
2022-09-15T09:47:00.983Z,18.2
2022-09-15T09:48:01.945Z,18.2
2022-09-15T09:49:01.185Z,18.1
2022-09-15T09:50:00.755Z,17.9
2022-09-15T09:51:01.342Z,17.8
2022-09-15T09:52:00.932Z,17.6
2022-09-15T09:53:01.502Z,17.4
2022-09-15T09:54:01.076Z,17.3
2022-09-15T09:55:01.649Z,17.3
2022-09-15T09:56:01.226Z,17.5
2022-09-15T09:57:00.815Z,17.4
2022-09-15T09:58:01.387Z,17.6
2022-09-15T09:59:00.958Z,17.5
2022-09-15T10:00:01.530Z,17.6
2022-09-15T10:01:01.127Z,17.6
2022-09-15T10:02:01.696Z,17.8
2022-09-15T10:03:01.323Z,17.9
2022-09-15T10:04:00.894Z,18
2022-09-15T10:05:01.499Z,17.9
2022-09-15T10:06:01.101Z,17.9
2022-09-15T10:07:01.702Z,17.8
2022-09-15T10:08:01.276Z,17.7
2022-09-15T10:09:00.849Z,17.8
2022-09-15T10:10:01.423Z,17.7
2022-09-15T10:11:01.006Z,17.6
2022-09-15T10:12:01.592Z,17.7
2022-09-15T10:13:01.162Z,17.6
2022-09-15T10:14:00.755Z,17.4
2022-09-15T10:15:01.323Z,17.4
2022-09-15T10:16:00.901Z,17.5
2022-09-15T10:17:01.553Z,17.4
2022-09-15T10:18:01.126Z,17.3
2022-09-15T10:19:01.743Z,17.3
2022-09-15T10:20:01.314Z,17.2
2022-09-15T10:21:00.888Z,17.1
2022-09-15T10:22:01.460Z,16.9
2022-09-15T10:23:01.034Z,16.8
2022-09-15T10:24:01.622Z,16.8
2022-09-15T10:25:01.192Z,16.8
2022-09-15T10:26:00.761Z,16.8
2022-09-15T10:27:01.336Z,16.7
2022-09-15T10:28:00.935Z,16.5
2022-09-15T10:29:01.505Z,16.5
2022-09-15T10:30:01.078Z,16.4
2022-09-15T10:31:01.652Z,16.4
2022-09-15T10:32:01.305Z,16.4
2022-09-15T10:33:00.900Z,16.4
2022-09-15T10:34:01.486Z,16.3
2022-09-15T10:35:01.081Z,16.3
2022-09-15T10:36:01.647Z,16.3
2022-09-15T10:37:01.235Z,16.3
2022-09-15T10:38:00.805Z,16.2
2022-09-15T10:39:01.380Z,16.1
2022-09-15T10:40:01.023Z,16.1
2022-09-15T10:41:01.540Z,16
2022-09-15T10:42:01.132Z,15.8
2022-09-15T10:43:01.697Z,15.5
2022-09-15T10:44:01.288Z,15.3
2022-09-15T10:45:00.946Z,15.1
2022-09-15T10:46:01.578Z,14.9
2022-09-15T10:47:01.189Z,14.8
2022-09-15T10:48:00.764Z,14.8
2022-09-15T10:49:01.340Z,14.8
2022-09-15T10:50:00.944Z,14.8
2022-09-15T10:51:01.550Z,14.9
2022-09-15T10:52:01.129Z,14.7
2022-09-15T10:53:01.700Z,14.6
2022-09-15T10:54:01.275Z,14.8
2022-09-15T10:55:00.867Z,14.8
2022-09-15T10:56:01.424Z,15
2022-09-15T10:57:01.021Z,15
2022-09-15T10:58:01.594Z,15.1
2022-09-15T10:59:01.172Z,15.2
2022-09-15T11:00:00.746Z,15.2
2022-09-15T11:01:01.378Z,15.4
2022-09-15T11:02:01.051Z,15.4
2022-09-15T11:03:01.560Z,15.5
2022-09-15T11:04:01.132Z,15.6
2022-09-15T11:05:01.726Z,15.6
2022-09-15T11:06:01.302Z,15.6
2022-09-15T11:07:00.897Z,15.7
2022-09-15T11:08:01.455Z,15.7
2022-09-15T11:09:01.031Z,15.7
2022-09-15T11:10:01.644Z,15.9
2022-09-15T11:11:01.218Z,15.8
2022-09-15T11:12:00.792Z,16
2022-09-15T11:13:01.365Z,16.1
2022-09-15T11:14:00.941Z,16.1
2022-09-15T11:15:01.526Z,16.2
2022-09-15T11:16:01.162Z,16.1
2022-09-15T11:17:01.689Z,16
2022-09-15T11:18:01.263Z,15.9
2022-09-15T11:19:00.835Z,15.9
2022-09-15T11:20:01.426Z,15.9
2022-09-15T11:21:01.014Z,15.8
2022-09-15T11:22:01.583Z,15.9
2022-09-15T11:23:01.194Z,15.9
2022-09-15T11:24:00.738Z,16.1
2022-09-15T11:25:01.326Z,16.1
2022-09-15T11:26:00.918Z,16.2
2022-09-15T11:27:01.483Z,16.1
2022-09-15T11:28:01.081Z,16.1
2022-09-15T11:29:01.628Z,16.2
2022-09-15T11:30:01.219Z,16.4
2022-09-15T11:31:00.841Z,16.6
2022-09-15T11:33:00.943Z,17
2022-09-15T11:34:01.518Z,17.1
2022-09-15T11:35:01.112Z,16.9
2022-09-15T11:36:01.678Z,16.8
2022-09-15T11:37:01.249Z,16.9
2022-09-15T11:38:00.822Z,17
2022-09-15T11:39:01.418Z,16.9
2022-09-15T11:40:01.085Z,17
2022-09-15T11:41:01.595Z,17.1
2022-09-15T11:42:01.170Z,17.1
2022-09-15T11:43:00.742Z,17.4
2022-09-15T11:44:01.312Z,17.3
2022-09-15T11:45:00.885Z,17.4
2022-09-15T11:46:01.476Z,17.4
2022-09-15T11:47:01.049Z,17.4
2022-09-15T11:48:01.618Z,17.1
2022-09-15T11:49:01.190Z,16.9
2022-09-15T11:50:00.759Z,17.2
2022-09-15T11:51:01.348Z,17.2
2022-09-15T11:52:00.919Z,17.3
2022-09-15T11:53:01.494Z,17.4
2022-09-15T11:54:01.071Z,17.7
2022-09-15T11:55:01.668Z,17.8
2022-09-15T11:56:01.258Z,17.9
2022-09-15T11:57:00.832Z,18
2022-09-15T11:58:01.411Z,18
2022-09-15T11:59:00.986Z,17.6
2022-09-15T12:00:01.559Z,17.6
2022-09-15T12:01:01.147Z,17.8
2022-09-15T12:02:01.825Z,17.7
2022-09-15T12:03:01.490Z,17.6
2022-09-15T12:04:00.954Z,17.7
2022-09-15T12:05:01.532Z,17.8
2022-09-15T12:06:01.108Z,17.7
2022-09-15T12:07:01.734Z,18.1
2022-09-15T12:08:01.346Z,18.1
2022-09-15T12:09:00.947Z,18.2
2022-09-15T12:10:01.502Z,18.3
2022-09-15T12:11:01.101Z,18.1
2022-09-15T12:12:01.675Z,18.1
2022-09-15T12:13:01.265Z,18
2022-09-15T12:14:00.838Z,17.8
2022-09-15T12:15:01.412Z,17.9
2022-09-15T12:16:01.030Z,18.1
2022-09-15T12:17:01.573Z,17.9
2022-09-15T12:18:03.553Z,17.9
2022-09-15T12:19:01.699Z,17.8
2022-09-15T12:20:01.278Z,18
2022-09-15T12:21:00.855Z,18
2022-09-15T12:22:01.430Z,18.3
2022-09-15T12:23:01.037Z,18.3
2022-09-15T12:24:01.584Z,18.1
2022-09-15T12:25:01.511Z,17.9
2022-09-15T12:26:00.740Z,17.9
2022-09-15T12:27:01.343Z,18
2022-09-15T12:28:00.917Z,17.9
2022-09-15T12:29:01.522Z,18.2
2022-09-15T12:30:01.119Z,18.2
2022-09-15T12:31:01.710Z,17.9
2022-09-15T12:32:01.295Z,18.1
2022-09-15T12:33:00.883Z,18.2
2022-09-15T12:34:01.456Z,18
2022-09-15T12:35:01.027Z,17.9
2022-09-15T12:36:01.601Z,17.8
2022-09-15T12:37:01.175Z,17.7
2022-09-15T12:38:00.772Z,17.8
2022-09-15T12:39:01.332Z,17.7
2022-09-15T12:40:00.957Z,17.8
2022-09-15T12:41:01.488Z,17.8
2022-09-15T12:42:01.060Z,17.7
2022-09-15T12:43:01.673Z,17.8
2022-09-15T12:44:01.247Z,18
2022-09-15T12:45:00.823Z,18
2022-09-15T12:46:01.447Z,18
2022-09-15T12:47:01.050Z,18
2022-09-15T12:48:01.654Z,18
2022-09-15T12:49:01.228Z,18.2
2022-09-15T12:50:00.801Z,18.4
2022-09-15T12:51:01.377Z,18.5
2022-09-15T12:52:00.950Z,18.5
2022-09-15T12:53:01.539Z,18.4
2022-09-15T12:54:01.115Z,18.4
2022-09-15T12:55:01.706Z,18.7
2022-09-15T12:56:01.278Z,18.4
2022-09-15T12:57:00.852Z,18.3
2022-09-15T12:58:01.422Z,18.4
2022-09-15T12:59:03.265Z,18.4
2022-09-15T13:00:01.549Z,18.6
2022-09-15T13:01:17.395Z,18.4
2022-09-15T13:02:01.680Z,18.2
2022-09-15T13:03:01.361Z,18.2
2022-09-15T13:04:00.972Z,18.3
2022-09-15T13:05:01.542Z,18.4
2022-09-15T13:06:01.147Z,18.6
2022-09-15T13:07:01.717Z,18.6
2022-09-15T13:08:01.289Z,18.4
2022-09-15T13:09:00.884Z,18.4
2022-09-15T13:10:01.477Z,18.4
2022-09-15T13:11:01.066Z,18.4
2022-09-15T13:12:01.636Z,18.1
2022-09-15T13:13:01.209Z,18.1
2022-09-15T13:14:00.798Z,18.1
2022-09-15T13:15:01.392Z,18.1
2022-09-15T13:16:01.027Z,18.1
2022-09-15T13:17:01.585Z,18.1
2022-09-15T13:18:01.157Z,18.1
2022-09-15T13:19:00.726Z,18.1
2022-09-15T13:20:01.298Z,18.2
2022-09-15T13:21:00.869Z,18.3
2022-09-15T13:22:01.461Z,18.2
2022-09-15T13:23:01.033Z,18.2
2022-09-15T13:24:01.607Z,17.9